sensor_id;sensor_type;location;lat;lon;timestamp;temperature;humidity
8539;DHT22;4307;53.868;11.680;2022-08-11T00:00:32;17.20;94.90
8539;DHT22;4307;53.868;11.680;2022-08-11T00:03:05;17.10;95.00
8539;DHT22;4307;53.868;11.680;2022-08-11T00:05:41;17.10;95.20
8539;DHT22;4307;53.868;11.680;2022-08-11T00:08:09;17.10;95.30
8539;DHT22;4307;53.868;11.680;2022-08-11T00:10:37;17.10;95.50
8539;DHT22;4307;53.868;11.680;2022-08-11T00:13:05;17.10;96.00
8539;DHT22;4307;53.868;11.680;2022-08-11T00:15:40;17.10;95.90
8539;DHT22;4307;53.868;11.680;2022-08-11T00:18:08;17.10;96.10
8539;DHT22;4307;53.868;11.680;2022-08-11T00:20:39;17.00;96.20
8539;DHT22;4307;53.868;11.680;2022-08-11T00:23:09;17.00;96.30
8539;DHT22;4307;53.868;11.680;2022-08-11T00:25:40;17.00;96.40
8539;DHT22;4307;53.868;11.680;2022-08-11T00:28:22;16.90;96.50
8539;DHT22;4307;53.868;11.680;2022-08-11T00:30:51;16.90;96.70
8539;DHT22;4307;53.868;11.680;2022-08-11T00:33:19;16.90;96.80
8539;DHT22;4307;53.868;11.680;2022-08-11T00:35:48;16.80;96.80
8539;DHT22;4307;53.868;11.680;2022-08-11T00:38:16;16.80;96.90
8539;DHT22;4307;53.868;11.680;2022-08-11T00:40:54;16.70;97.00
8539;DHT22;4307;53.868;11.680;2022-08-11T00:43:35;16.60;97.20
8539;DHT22;4307;53.868;11.680;2022-08-11T00:46:13;16.60;97.40
8539;DHT22;4307;53.868;11.680;2022-08-11T00:48:58;16.60;97.60
8539;DHT22;4307;53.868;11.680;2022-08-11T00:51:41;16.60;97.70
8539;DHT22;4307;53.868;11.680;2022-08-11T00:57:34;16.50;97.90
8539;DHT22;4307;53.868;11.680;2022-08-11T01:00:11;16.40;98.00
8539;DHT22;4307;53.868;11.680;2022-08-11T01:05:44;16.30;98.20
8539;DHT22;4307;53.868;11.680;2022-08-11T01:08:42;16.20;98.40
8539;DHT22;4307;53.868;11.680;2022-08-11T01:11:26;16.20;98.50
8539;DHT22;4307;53.868;11.680;2022-08-11T01:14:25;16.10;98.60
8539;DHT22;4307;53.868;11.680;2022-08-11T01:17:41;16.10;98.80
8539;DHT22;4307;53.868;11.680;2022-08-11T01:23:40;16.00;99.00
8539;DHT22;4307;53.868;11.680;2022-08-11T01:29:29;15.90;99.40
8539;DHT22;4307;53.868;11.680;2022-08-11T01:35:47;15.80;99.80
8539;DHT22;4307;53.868;11.680;2022-08-11T01:38:33;15.70;99.80
8539;DHT22;4307;53.868;11.680;2022-08-11T01:41:22;15.70;99.90
8539;DHT22;4307;53.868;11.680;2022-08-11T01:44:40;15.70;99.90
8539;DHT22;4307;53.868;11.680;2022-08-11T01:47:22;15.70;99.90
8539;DHT22;4307;53.868;11.680;2022-08-11T01:50:15;15.70;99.90
8539;DHT22;4307;53.868;11.680;2022-08-11T01:53:01;15.60;99.90
8539;DHT22;4307;53.868;11.680;2022-08-11T01:55:36;15.60;99.90
8539;DHT22;4307;53.868;11.680;2022-08-11T01:58:07;15.50;99.90
8539;DHT22;4307;53.868;11.680;2022-08-11T02:00:49;15.50;99.90
8539;DHT22;4307;53.868;11.680;2022-08-11T02:03:24;15.40;99.90
8539;DHT22;4307;53.868;11.680;2022-08-11T02:06:03;15.40;99.90
8539;DHT22;4307;53.868;11.680;2022-08-11T02:09:00;15.30;99.90
8539;DHT22;4307;53.868;11.680;2022-08-11T02:11:31;15.30;99.90
8539;DHT22;4307;53.868;11.680;2022-08-11T02:14:16;15.30;99.90
8539;DHT22;4307;53.868;11.680;2022-08-11T02:17:08;15.30;99.90
8539;DHT22;4307;53.868;11.680;2022-08-11T02:19:42;15.20;99.90
8539;DHT22;4307;53.868;11.680;2022-08-11T02:22:48;15.20;99.90
8539;DHT22;4307;53.868;11.680;2022-08-11T02:25:37;15.20;99.90
8539;DHT22;4307;53.868;11.680;2022-08-11T02:28:16;15.10;99.90
8539;DHT22;4307;53.868;11.680;2022-08-11T02:30:49;15.10;99.90
8539;DHT22;4307;53.868;11.680;2022-08-11T02:33:41;15.10;99.90
8539;DHT22;4307;53.868;11.680;2022-08-11T02:36:13;15.00;99.90
8539;DHT22;4307;53.868;11.680;2022-08-11T02:38:50;15.00;99.90
8539;DHT22;4307;53.868;11.680;2022-08-11T02:41:23;15.00;99.90
8539;DHT22;4307;53.868;11.680;2022-08-11T02:44:19;14.90;99.90
8539;DHT22;4307;53.868;11.680;2022-08-11T02:47:06;15.00;99.90
8539;DHT22;4307;53.868;11.680;2022-08-11T02:49:43;15.00;99.90
8539;DHT22;4307;53.868;11.680;2022-08-11T02:52:33;14.90;99.90
8539;DHT22;4307;53.868;11.680;2022-08-11T02:55:15;15.00;99.90
8539;DHT22;4307;53.868;11.680;2022-08-11T02:57:50;14.90;99.90
8539;DHT22;4307;53.868;11.680;2022-08-11T03:00:19;14.90;99.90
8539;DHT22;4307;53.868;11.680;2022-08-11T03:03:00;14.90;99.90
8539;DHT22;4307;53.868;11.680;2022-08-11T03:05:41;14.80;99.90
8539;DHT22;4307;53.868;11.680;2022-08-11T03:08:21;14.80;99.90
8539;DHT22;4307;53.868;11.680;2022-08-11T03:10:58;14.80;99.90
8539;DHT22;4307;53.868;11.680;2022-08-11T03:13:54;14.70;99.90
8539;DHT22;4307;53.868;11.680;2022-08-11T03:16:45;14.70;99.90
8539;DHT22;4307;53.868;11.680;2022-08-11T03:19:21;14.70;99.90
8539;DHT22;4307;53.868;11.680;2022-08-11T03:22:04;14.60;99.90
8539;DHT22;4307;53.868;11.680;2022-08-11T03:24:45;14.60;99.90
8539;DHT22;4307;53.868;11.680;2022-08-11T03:27:32;14.50;99.90
8539;DHT22;4307;53.868;11.680;2022-08-11T03:30:06;14.50;99.90
8539;DHT22;4307;53.868;11.680;2022-08-11T03:32:41;14.50;99.90
8539;DHT22;4307;53.868;11.680;2022-08-11T03:35:35;14.50;99.90
8539;DHT22;4307;53.868;11.680;2022-08-11T03:38:07;14.50;99.90
8539;DHT22;4307;53.868;11.680;2022-08-11T03:40:50;14.50;99.90
8539;DHT22;4307;53.868;11.680;2022-08-11T03:43:53;14.50;99.90
8539;DHT22;4307;53.868;11.680;2022-08-11T03:46:34;14.50;99.90
8539;DHT22;4307;53.868;11.680;2022-08-11T03:49:10;14.50;99.90
8539;DHT22;4307;53.868;11.680;2022-08-11T03:51:47;14.40;99.90
8539;DHT22;4307;53.868;11.680;2022-08-11T03:54:27;14.40;99.90
8539;DHT22;4307;53.868;11.680;2022-08-11T04:00:28;14.40;99.90
8539;DHT22;4307;53.868;11.680;2022-08-11T04:06:27;14.50;99.90
8539;DHT22;4307;53.868;11.680;2022-08-11T04:12:33;14.50;99.90
8539;DHT22;4307;53.868;11.680;2022-08-11T04:15:18;14.50;99.90
8539;DHT22;4307;53.868;11.680;2022-08-11T04:18:24;14.50;99.90
8539;DHT22;4307;53.868;11.680;2022-08-11T04:21:15;14.60;99.90
8539;DHT22;4307;53.868;11.680;2022-08-11T04:23:57;14.70;99.90
8539;DHT22;4307;53.868;11.680;2022-08-11T04:26:49;14.80;99.90
8539;DHT22;4307;53.868;11.680;2022-08-11T04:29:37;14.90;99.90
8539;DHT22;4307;53.868;11.680;2022-08-11T04:32:20;15.10;99.90
8539;DHT22;4307;53.868;11.680;2022-08-11T04:35:17;15.30;99.90
8539;DHT22;4307;53.868;11.680;2022-08-11T04:41:22;15.80;99.90
8539;DHT22;4307;53.868;11.680;2022-08-11T04:44:27;16.00;99.90
8539;DHT22;4307;53.868;11.680;2022-08-11T04:47:31;16.20;99.90
8539;DHT22;4307;53.868;11.680;2022-08-11T04:50:40;16.50;99.90
8539;DHT22;4307;53.868;11.680;2022-08-11T04:53:35;16.70;99.90
8539;DHT22;4307;53.868;11.680;2022-08-11T04:56:23;16.90;99.90
8539;DHT22;4307;53.868;11.680;2022-08-11T04:59:36;17.00;99.90
8539;DHT22;4307;53.868;11.680;2022-08-11T05:05:24;17.40;99.90
8539;DHT22;4307;53.868;11.680;2022-08-11T05:08:20;17.60;99.90
8539;DHT22;4307;53.868;11.680;2022-08-11T05:11:06;17.80;99.90
8539;DHT22;4307;53.868;11.680;2022-08-11T05:13:44;17.90;99.90
8539;DHT22;4307;53.868;11.680;2022-08-11T05:16:31;18.10;99.90
8539;DHT22;4307;53.868;11.680;2022-08-11T05:19:18;18.20;99.90
8539;DHT22;4307;53.868;11.680;2022-08-11T05:22:06;18.40;99.90
8539;DHT22;4307;53.868;11.680;2022-08-11T05:24:59;18.60;99.90
8539;DHT22;4307;53.868;11.680;2022-08-11T05:27:49;18.80;99.90
8539;DHT22;4307;53.868;11.680;2022-08-11T05:30:35;19.00;99.90
8539;DHT22;4307;53.868;11.680;2022-08-11T05:33:29;19.10;99.90
8539;DHT22;4307;53.868;11.680;2022-08-11T05:36:17;19.40;99.90
8539;DHT22;4307;53.868;11.680;2022-08-11T05:38:53;19.70;99.90
8539;DHT22;4307;53.868;11.680;2022-08-11T05:41:41;19.90;99.90
8539;DHT22;4307;53.868;11.680;2022-08-11T05:44:26;20.10;99.90
8539;DHT22;4307;53.868;11.680;2022-08-11T05:47:21;20.40;99.90
8539;DHT22;4307;53.868;11.680;2022-08-11T05:50:08;20.60;99.90
8539;DHT22;4307;53.868;11.680;2022-08-11T05:52:53;21.00;99.90
8539;DHT22;4307;53.868;11.680;2022-08-11T05:55:39;21.40;99.90
8539;DHT22;4307;53.868;11.680;2022-08-11T05:58:26;21.60;99.90
8539;DHT22;4307;53.868;11.680;2022-08-11T06:00:58;21.80;99.90
8539;DHT22;4307;53.868;11.680;2022-08-11T06:03:27;21.90;99.90
8539;DHT22;4307;53.868;11.680;2022-08-11T06:05:55;22.00;99.90
8539;DHT22;4307;53.868;11.680;2022-08-11T06:08:27;22.20;99.90
8539;DHT22;4307;53.868;11.680;2022-08-11T06:10:59;22.40;99.90
8539;DHT22;4307;53.868;11.680;2022-08-11T06:13:28;22.50;99.90
8539;DHT22;4307;53.868;11.680;2022-08-11T06:15:58;22.60;99.80
8539;DHT22;4307;53.868;11.680;2022-08-11T06:18:25;22.80;99.10
8539;DHT22;4307;53.868;11.680;2022-08-11T06:20:54;23.00;98.70
8539;DHT22;4307;53.868;11.680;2022-08-11T06:23:24;23.20;97.90
8539;DHT22;4307;53.868;11.680;2022-08-11T06:25:57;23.40;97.30
8539;DHT22;4307;53.868;11.680;2022-08-11T06:28:30;23.50;96.60
8539;DHT22;4307;53.868;11.680;2022-08-11T06:30:58;23.70;95.80
8539;DHT22;4307;53.868;11.680;2022-08-11T06:33:30;23.70;95.70
8539;DHT22;4307;53.868;11.680;2022-08-11T06:36:02;24.00;95.30
8539;DHT22;4307;53.868;11.680;2022-08-11T06:38:38;24.30;94.80
8539;DHT22;4307;53.868;11.680;2022-08-11T06:41:17;24.60;94.00
8539;DHT22;4307;53.868;11.680;2022-08-11T06:44:15;24.70;93.50
8539;DHT22;4307;53.868;11.680;2022-08-11T06:46:47;24.70;92.90
8539;DHT22;4307;53.868;11.680;2022-08-11T06:49:16;24.70;93.00
8539;DHT22;4307;53.868;11.680;2022-08-11T06:52:03;24.80;92.70
8539;DHT22;4307;53.868;11.680;2022-08-11T06:54:33;25.00;92.40
8539;DHT22;4307;53.868;11.680;2022-08-11T06:57:02;25.10;91.80
8539;DHT22;4307;53.868;11.680;2022-08-11T06:59:50;25.10;91.30
8539;DHT22;4307;53.868;11.680;2022-08-11T07:02:40;25.20;91.10
8539;DHT22;4307;53.868;11.680;2022-08-11T07:05:15;25.30;91.00
8539;DHT22;4307;53.868;11.680;2022-08-11T07:08:13;25.40;90.70
8539;DHT22;4307;53.868;11.680;2022-08-11T07:11:17;25.50;90.10
8539;DHT22;4307;53.868;11.680;2022-08-11T07:14:10;25.80;88.70
8539;DHT22;4307;53.868;11.680;2022-08-11T07:16:57;26.10;87.40
8539;DHT22;4307;53.868;11.680;2022-08-11T07:19:28;26.20;86.10
8539;DHT22;4307;53.868;11.680;2022-08-11T07:22:14;26.30;84.90
8539;DHT22;4307;53.868;11.680;2022-08-11T07:25:02;26.40;83.70
8539;DHT22;4307;53.868;11.680;2022-08-11T07:27:50;26.60;83.20
8539;DHT22;4307;53.868;11.680;2022-08-11T07:30:39;26.90;82.30
8539;DHT22;4307;53.868;11.680;2022-08-11T07:33:09;27.10;81.50
8539;DHT22;4307;53.868;11.680;2022-08-11T07:35:42;27.30;80.30
8539;DHT22;4307;53.868;11.680;2022-08-11T07:38:15;27.40;79.20
8539;DHT22;4307;53.868;11.680;2022-08-11T07:40:42;27.60;78.90
8539;DHT22;4307;53.868;11.680;2022-08-11T07:43:11;27.80;78.10
8539;DHT22;4307;53.868;11.680;2022-08-11T07:45:41;28.00;76.30
8539;DHT22;4307;53.868;11.680;2022-08-11T07:48:27;28.20;74.90
8539;DHT22;4307;53.868;11.680;2022-08-11T07:51:16;28.40;74.50
8539;DHT22;4307;53.868;11.680;2022-08-11T07:54:01;28.50;72.80
8539;DHT22;4307;53.868;11.680;2022-08-11T07:56:32;28.70;72.50
8539;DHT22;4307;53.868;11.680;2022-08-11T07:59:00;28.70;71.80
8539;DHT22;4307;53.868;11.680;2022-08-11T08:01:46;28.70;71.50
8539;DHT22;4307;53.868;11.680;2022-08-11T08:04:32;28.90;71.30
8539;DHT22;4307;53.868;11.680;2022-08-11T08:07:20;28.90;71.10
8539;DHT22;4307;53.868;11.680;2022-08-11T08:10:06;28.90;71.10
8539;DHT22;4307;53.868;11.680;2022-08-11T08:12:51;28.90;70.50
8539;DHT22;4307;53.868;11.680;2022-08-11T08:15:35;29.20;69.60
8539;DHT22;4307;53.868;11.680;2022-08-11T08:18:21;29.40;68.50
8539;DHT22;4307;53.868;11.680;2022-08-11T08:20:50;29.70;67.30
8539;DHT22;4307;53.868;11.680;2022-08-11T08:23:20;29.80;65.90
8539;DHT22;4307;53.868;11.680;2022-08-11T08:25:58;30.00;64.90
8539;DHT22;4307;53.868;11.680;2022-08-11T08:28:27;30.20;64.10
8539;DHT22;4307;53.868;11.680;2022-08-11T08:30:54;30.30;62.90
8539;DHT22;4307;53.868;11.680;2022-08-11T08:33:23;30.40;62.40
8539;DHT22;4307;53.868;11.680;2022-08-11T08:35:56;30.60;62.10
8539;DHT22;4307;53.868;11.680;2022-08-11T08:38:38;30.80;61.40
8539;DHT22;4307;53.868;11.680;2022-08-11T08:41:05;30.90;60.70
8539;DHT22;4307;53.868;11.680;2022-08-11T08:43:33;30.90;60.00
8539;DHT22;4307;53.868;11.680;2022-08-11T08:46:02;30.80;59.10
8539;DHT22;4307;53.868;11.680;2022-08-11T08:48:31;30.90;59.00
8539;DHT22;4307;53.868;11.680;2022-08-11T08:51:13;31.10;58.50
8539;DHT22;4307;53.868;11.680;2022-08-11T08:54:02;31.20;58.80
8539;DHT22;4307;53.868;11.680;2022-08-11T08:56:29;31.30;58.30
8539;DHT22;4307;53.868;11.680;2022-08-11T08:59:00;31.40;58.10
8539;DHT22;4307;53.868;11.680;2022-08-11T09:01:29;31.20;58.40
8539;DHT22;4307;53.868;11.680;2022-08-11T09:03:57;31.30;57.80
8539;DHT22;4307;53.868;11.680;2022-08-11T09:06:25;31.60;57.30
8539;DHT22;4307;53.868;11.680;2022-08-11T09:08:55;31.50;56.80
8539;DHT22;4307;53.868;11.680;2022-08-11T09:11:23;31.40;56.70
8539;DHT22;4307;53.868;11.680;2022-08-11T09:14:07;31.50;55.80
8539;DHT22;4307;53.868;11.680;2022-08-11T09:16:35;31.20;55.90
8539;DHT22;4307;53.868;11.680;2022-08-11T09:19:03;31.10;56.00
8539;DHT22;4307;53.868;11.680;2022-08-11T09:21:32;31.10;55.70
8539;DHT22;4307;53.868;11.680;2022-08-11T09:24:00;30.90;55.70
8539;DHT22;4307;53.868;11.680;2022-08-11T09:26:45;30.70;56.20
8539;DHT22;4307;53.868;11.680;2022-08-11T09:29:26;30.90;56.40
8539;DHT22;4307;53.868;11.680;2022-08-11T09:31:53;31.10;55.30
8539;DHT22;4307;53.868;11.680;2022-08-11T09:34:21;31.40;54.90
8539;DHT22;4307;53.868;11.680;2022-08-11T09:36:49;31.40;53.90
8539;DHT22;4307;53.868;11.680;2022-08-11T09:39:37;31.30;54.70
8539;DHT22;4307;53.868;11.680;2022-08-11T09:42:22;31.60;53.80
8539;DHT22;4307;53.868;11.680;2022-08-11T09:45:10;31.70;53.40
8539;DHT22;4307;53.868;11.680;2022-08-11T09:47:37;32.00;52.90
8539;DHT22;4307;53.868;11.680;2022-08-11T09:50:05;32.30;52.40
8539;DHT22;4307;53.868;11.680;2022-08-11T09:52:38;32.70;51.60
8539;DHT22;4307;53.868;11.680;2022-08-11T09:55:06;33.10;50.90
8539;DHT22;4307;53.868;11.680;2022-08-11T09:57:37;33.50;50.30
8539;DHT22;4307;53.868;11.680;2022-08-11T10:00:27;33.50;49.70
8539;DHT22;4307;53.868;11.680;2022-08-11T10:02:55;33.60;49.20
8539;DHT22;4307;53.868;11.680;2022-08-11T10:05:22;33.40;49.20
8539;DHT22;4307;53.868;11.680;2022-08-11T10:08:11;33.10;49.80
8539;DHT22;4307;53.868;11.680;2022-08-11T10:10:38;32.90;48.70
8539;DHT22;4307;53.868;11.680;2022-08-11T10:13:10;32.60;48.60
8539;DHT22;4307;53.868;11.680;2022-08-11T10:15:41;32.60;48.50
8539;DHT22;4307;53.868;11.680;2022-08-11T10:18:13;32.30;48.70
8539;DHT22;4307;53.868;11.680;2022-08-11T10:21:00;32.10;48.90
8539;DHT22;4307;53.868;11.680;2022-08-11T10:23:31;32.10;48.30
8539;DHT22;4307;53.868;11.680;2022-08-11T10:26:17;32.10;47.80
8539;DHT22;4307;53.868;11.680;2022-08-11T10:29:02;32.20;47.40
8539;DHT22;4307;53.868;11.680;2022-08-11T10:31:51;32.30;46.40
8539;DHT22;4307;53.868;11.680;2022-08-11T10:34:37;32.00;46.20
8539;DHT22;4307;53.868;11.680;2022-08-11T10:37:04;31.70;46.60
8539;DHT22;4307;53.868;11.680;2022-08-11T10:39:38;31.90;46.60
8539;DHT22;4307;53.868;11.680;2022-08-11T10:42:06;32.10;45.70
8539;DHT22;4307;53.868;11.680;2022-08-11T10:44:53;32.00;45.30
8539;DHT22;4307;53.868;11.680;2022-08-11T10:47:21;31.90;46.00
8539;DHT22;4307;53.868;11.680;2022-08-11T10:50:00;31.80;46.50
8539;DHT22;4307;53.868;11.680;2022-08-11T10:52:47;31.60;45.90
8539;DHT22;4307;53.868;11.680;2022-08-11T10:55:33;31.40;46.00
8539;DHT22;4307;53.868;11.680;2022-08-11T10:58:18;31.40;46.10
8539;DHT22;4307;53.868;11.680;2022-08-11T11:01:04;31.50;45.30
8539;DHT22;4307;53.868;11.680;2022-08-11T11:03:31;31.70;45.40
8539;DHT22;4307;53.868;11.680;2022-08-11T11:06:05;31.90;45.30
8539;DHT22;4307;53.868;11.680;2022-08-11T11:08:35;32.10;44.80
8539;DHT22;4307;53.868;11.680;2022-08-11T11:11:21;32.30;44.30
8539;DHT22;4307;53.868;11.680;2022-08-11T11:14:09;32.40;42.70
8539;DHT22;4307;53.868;11.680;2022-08-11T11:16:55;32.40;42.70
8539;DHT22;4307;53.868;11.680;2022-08-11T11:19:41;32.60;42.00
8539;DHT22;4307;53.868;11.680;2022-08-11T11:22:09;32.90;42.30
8539;DHT22;4307;53.868;11.680;2022-08-11T11:24:59;33.10;42.50
8539;DHT22;4307;53.868;11.680;2022-08-11T11:27:33;33.60;42.30
8539;DHT22;4307;53.868;11.680;2022-08-11T11:30:05;34.20;41.90
8539;DHT22;4307;53.868;11.680;2022-08-11T11:32:40;34.80;40.90
8539;DHT22;4307;53.868;11.680;2022-08-11T11:35:23;34.70;40.10
8539;DHT22;4307;53.868;11.680;2022-08-11T11:37:52;34.30;40.10
8539;DHT22;4307;53.868;11.680;2022-08-11T11:40:22;33.90;40.10
8539;DHT22;4307;53.868;11.680;2022-08-11T11:42:53;33.60;40.70
8539;DHT22;4307;53.868;11.680;2022-08-11T11:45:23;33.70;40.70
8539;DHT22;4307;53.868;11.680;2022-08-11T11:47:53;33.70;40.60
8539;DHT22;4307;53.868;11.680;2022-08-11T11:50:24;34.00;40.80
8539;DHT22;4307;53.868;11.680;2022-08-11T11:52:53;34.70;40.50
8539;DHT22;4307;53.868;11.680;2022-08-11T11:55:22;35.10;40.00
8539;DHT22;4307;53.868;11.680;2022-08-11T11:57:52;35.30;40.10
8539;DHT22;4307;53.868;11.680;2022-08-11T12:00:37;35.40;39.70
8539;DHT22;4307;53.868;11.680;2022-08-11T12:03:23;35.70;39.60
8539;DHT22;4307;53.868;11.680;2022-08-11T12:05:51;35.90;39.00
8539;DHT22;4307;53.868;11.680;2022-08-11T12:08:20;36.20;38.60
8539;DHT22;4307;53.868;11.680;2022-08-11T12:10:49;36.70;37.60
8539;DHT22;4307;53.868;11.680;2022-08-11T12:13:38;36.90;37.00
8539;DHT22;4307;53.868;11.680;2022-08-11T12:16:09;37.30;36.70
8539;DHT22;4307;53.868;11.680;2022-08-11T12:18:36;37.20;36.20
8539;DHT22;4307;53.868;11.680;2022-08-11T12:21:04;36.80;36.20
8539;DHT22;4307;53.868;11.680;2022-08-11T12:23:33;36.70;37.20
8539;DHT22;4307;53.868;11.680;2022-08-11T12:26:18;36.70;36.30
8539;DHT22;4307;53.868;11.680;2022-08-11T12:29:06;36.70;35.90
8539;DHT22;4307;53.868;11.680;2022-08-11T12:31:33;36.80;35.90
8539;DHT22;4307;53.868;11.680;2022-08-11T12:34:03;36.60;35.70
8539;DHT22;4307;53.868;11.680;2022-08-11T12:36:33;36.40;35.60
8539;DHT22;4307;53.868;11.680;2022-08-11T12:39:02;36.40;35.20
8539;DHT22;4307;53.868;11.680;2022-08-11T12:41:32;36.60;35.50
8539;DHT22;4307;53.868;11.680;2022-08-11T12:44:20;37.10;35.30
8539;DHT22;4307;53.868;11.680;2022-08-11T12:47:06;37.60;35.00
8539;DHT22;4307;53.868;11.680;2022-08-11T12:49:36;38.00;34.20
8539;DHT22;4307;53.868;11.680;2022-08-11T12:52:24;38.40;33.40
8539;DHT22;4307;53.868;11.680;2022-08-11T12:54:57;38.60;32.70
8539;DHT22;4307;53.868;11.680;2022-08-11T12:57:30;38.60;31.80
8539;DHT22;4307;53.868;11.680;2022-08-11T13:00:17;38.70;31.90
8539;DHT22;4307;53.868;11.680;2022-08-11T13:03:03;38.80;31.70
8539;DHT22;4307;53.868;11.680;2022-08-11T13:05:51;38.70;31.40
8539;DHT22;4307;53.868;11.680;2022-08-11T13:08:21;38.60;31.70
8539;DHT22;4307;53.868;11.680;2022-08-11T13:10:50;38.30;31.70
8539;DHT22;4307;53.868;11.680;2022-08-11T13:13:44;38.00;32.50
8539;DHT22;4307;53.868;11.680;2022-08-11T13:16:16;37.70;32.70
8539;DHT22;4307;53.868;11.680;2022-08-11T13:18:45;37.50;33.10
8539;DHT22;4307;53.868;11.680;2022-08-11T13:21:13;37.60;33.10
8539;DHT22;4307;53.868;11.680;2022-08-11T13:23:40;37.50;32.80
8539;DHT22;4307;53.868;11.680;2022-08-11T13:26:08;37.60;32.80
8539;DHT22;4307;53.868;11.680;2022-08-11T13:28:35;37.50;34.20
8539;DHT22;4307;53.868;11.680;2022-08-11T13:31:03;37.40;36.90
8539;DHT22;4307;53.868;11.680;2022-08-11T13:33:45;37.50;37.40
8539;DHT22;4307;53.868;11.680;2022-08-11T13:36:18;37.90;38.00
8539;DHT22;4307;53.868;11.680;2022-08-11T13:38:47;38.20;38.60
8539;DHT22;4307;53.868;11.680;2022-08-11T13:41:14;38.00;38.80
8539;DHT22;4307;53.868;11.680;2022-08-11T13:43:58;37.60;39.30
8539;DHT22;4307;53.868;11.680;2022-08-11T13:46:26;37.00;39.70
8539;DHT22;4307;53.868;11.680;2022-08-11T13:48:56;36.40;40.00
8539;DHT22;4307;53.868;11.680;2022-08-11T13:51:23;35.90;40.60
8539;DHT22;4307;53.868;11.680;2022-08-11T13:53:59;35.50;41.00
8539;DHT22;4307;53.868;11.680;2022-08-11T13:56:26;34.90;41.40
8539;DHT22;4307;53.868;11.680;2022-08-11T13:58:54;34.20;41.70
8539;DHT22;4307;53.868;11.680;2022-08-11T14:01:25;33.80;41.90
8539;DHT22;4307;53.868;11.680;2022-08-11T14:03:53;33.50;42.20
8539;DHT22;4307;53.868;11.680;2022-08-11T14:06:25;33.10;41.80
8539;DHT22;4307;53.868;11.680;2022-08-11T14:08:55;32.70;42.00
8539;DHT22;4307;53.868;11.680;2022-08-11T14:11:23;32.60;42.40
8539;DHT22;4307;53.868;11.680;2022-08-11T14:14:17;32.50;43.00
8539;DHT22;4307;53.868;11.680;2022-08-11T14:16:51;32.50;44.60
8539;DHT22;4307;53.868;11.680;2022-08-11T14:19:24;32.50;45.10
8539;DHT22;4307;53.868;11.680;2022-08-11T14:21:58;32.50;45.50
8539;DHT22;4307;53.868;11.680;2022-08-11T14:24:34;32.30;45.80
8539;DHT22;4307;53.868;11.680;2022-08-11T14:27:04;32.10;46.10
8539;DHT22;4307;53.868;11.680;2022-08-11T14:29:32;31.80;46.50
8539;DHT22;4307;53.868;11.680;2022-08-11T14:32:05;31.60;47.00
8539;DHT22;4307;53.868;11.680;2022-08-11T14:34:33;31.40;47.50
8539;DHT22;4307;53.868;11.680;2022-08-11T14:37:04;31.20;48.20
8539;DHT22;4307;53.868;11.680;2022-08-11T14:39:42;31.20;48.80
8539;DHT22;4307;53.868;11.680;2022-08-11T14:42:11;31.20;49.50
8539;DHT22;4307;53.868;11.680;2022-08-11T14:44:58;31.20;49.60
8539;DHT22;4307;53.868;11.680;2022-08-11T14:47:57;31.10;49.30
8539;DHT22;4307;53.868;11.680;2022-08-11T14:50:27;31.10;49.30
8539;DHT22;4307;53.868;11.680;2022-08-11T14:52:58;30.80;49.30
8539;DHT22;4307;53.868;11.680;2022-08-11T14:55:27;30.60;49.80
8539;DHT22;4307;53.868;11.680;2022-08-11T14:58:15;30.60;50.20
8539;DHT22;4307;53.868;11.680;2022-08-11T15:00:43;30.70;50.40
8539;DHT22;4307;53.868;11.680;2022-08-11T15:03:11;30.70;50.60
8539;DHT22;4307;53.868;11.680;2022-08-11T15:05:40;30.70;50.80
8539;DHT22;4307;53.868;11.680;2022-08-11T15:08:12;30.60;50.90
8539;DHT22;4307;53.868;11.680;2022-08-11T15:10:40;30.60;51.70
8539;DHT22;4307;53.868;11.680;2022-08-11T15:13:06;30.60;50.90
8539;DHT22;4307;53.868;11.680;2022-08-11T15:15:34;30.60;50.90
8539;DHT22;4307;53.868;11.680;2022-08-11T15:18:20;30.50;51.10
8539;DHT22;4307;53.868;11.680;2022-08-11T15:20:48;30.50;51.40
8539;DHT22;4307;53.868;11.680;2022-08-11T15:23:35;30.40;51.60
8539;DHT22;4307;53.868;11.680;2022-08-11T15:26:24;30.40;52.30
8539;DHT22;4307;53.868;11.680;2022-08-11T15:29:08;30.40;52.70
8539;DHT22;4307;53.868;11.680;2022-08-11T15:31:55;30.30;53.20
8539;DHT22;4307;53.868;11.680;2022-08-11T15:34:40;30.20;53.40
8539;DHT22;4307;53.868;11.680;2022-08-11T15:37:26;30.10;54.00
8539;DHT22;4307;53.868;11.680;2022-08-11T15:40:02;30.00;54.10
8539;DHT22;4307;53.868;11.680;2022-08-11T15:42:50;29.90;54.40
8539;DHT22;4307;53.868;11.680;2022-08-11T15:45:38;29.80;54.60
8539;DHT22;4307;53.868;11.680;2022-08-11T15:48:23;29.70;54.90
8539;DHT22;4307;53.868;11.680;2022-08-11T15:50:53;29.60;55.30
8539;DHT22;4307;53.868;11.680;2022-08-11T15:53:26;29.60;55.70
8539;DHT22;4307;53.868;11.680;2022-08-11T15:55:57;29.50;56.00
8539;DHT22;4307;53.868;11.680;2022-08-11T15:58:28;29.40;56.20
8539;DHT22;4307;53.868;11.680;2022-08-11T16:01:26;29.40;56.60
8539;DHT22;4307;53.868;11.680;2022-08-11T16:04:25;29.30;56.70
8539;DHT22;4307;53.868;11.680;2022-08-11T16:06:56;29.30;56.70
8539;DHT22;4307;53.868;11.680;2022-08-11T16:09:30;29.30;56.60
8539;DHT22;4307;53.868;11.680;2022-08-11T16:12:02;29.30;56.60
8539;DHT22;4307;53.868;11.680;2022-08-11T16:14:32;29.30;56.70
8539;DHT22;4307;53.868;11.680;2022-08-11T16:17:17;29.20;56.60
8539;DHT22;4307;53.868;11.680;2022-08-11T16:19:47;29.20;56.90
8539;DHT22;4307;53.868;11.680;2022-08-11T16:22:20;29.10;57.10
8539;DHT22;4307;53.868;11.680;2022-08-11T16:24:52;29.10;57.20
8539;DHT22;4307;53.868;11.680;2022-08-11T16:27:22;29.00;57.10
8539;DHT22;4307;53.868;11.680;2022-08-11T16:29:50;29.00;57.40
8539;DHT22;4307;53.868;11.680;2022-08-11T16:32:21;28.80;57.50
8539;DHT22;4307;53.868;11.680;2022-08-11T16:34:53;28.80;57.60
8539;DHT22;4307;53.868;11.680;2022-08-11T16:37:38;28.80;57.80
8539;DHT22;4307;53.868;11.680;2022-08-11T16:40:24;28.60;57.70
8539;DHT22;4307;53.868;11.680;2022-08-11T16:42:53;28.50;57.80
8539;DHT22;4307;53.868;11.680;2022-08-11T16:45:41;28.40;57.90
8539;DHT22;4307;53.868;11.680;2022-08-11T16:48:29;28.30;58.10
8539;DHT22;4307;53.868;11.680;2022-08-11T16:50:56;28.30;58.30
8539;DHT22;4307;53.868;11.680;2022-08-11T16:53:26;28.20;58.30
8539;DHT22;4307;53.868;11.680;2022-08-11T16:55:54;28.10;58.50
8539;DHT22;4307;53.868;11.680;2022-08-11T16:58:23;28.00;58.50
8539;DHT22;4307;53.868;11.680;2022-08-11T17:01:08;28.00;58.90
8539;DHT22;4307;53.868;11.680;2022-08-11T17:03:38;27.90;59.00
8539;DHT22;4307;53.868;11.680;2022-08-11T17:06:43;27.90;59.30
8539;DHT22;4307;53.868;11.680;2022-08-11T17:09:31;27.90;59.30
8539;DHT22;4307;53.868;11.680;2022-08-11T17:12:19;27.80;60.00
8539;DHT22;4307;53.868;11.680;2022-08-11T17:15:16;27.70;59.60
8539;DHT22;4307;53.868;11.680;2022-08-11T17:18:02;27.70;60.00
8539;DHT22;4307;53.868;11.680;2022-08-11T17:20:30;27.60;60.30
8539;DHT22;4307;53.868;11.680;2022-08-11T17:22:59;27.60;60.50
8539;DHT22;4307;53.868;11.680;2022-08-11T17:25:45;27.60;60.60
8539;DHT22;4307;53.868;11.680;2022-08-11T17:28:14;27.50;60.80